createdAt,value
2022-10-08T00:09:11.020Z,75.59
2022-10-08T05:41:07.235Z,86.27
2022-10-08T06:03:24.261Z,91.99
2022-10-08T06:06:26.908Z,92.23
2022-10-08T06:09:28.681Z,92.80
2022-10-08T06:12:30.296Z,94.37
2022-10-08T06:15:31.894Z,94.40
2022-10-08T06:18:38.807Z,94.60
2022-10-08T06:21:40.526Z,95.07
2022-10-08T06:24:42.127Z,95.80
2022-10-08T06:27:43.705Z,96.17
2022-10-08T06:30:45.286Z,96.50
2022-10-08T06:33:47.084Z,96.80
2022-10-08T06:36:48.679Z,96.64
2022-10-08T06:39:50.315Z,96.97
2022-10-08T06:42:53.051Z,96.58
2022-10-08T06:45:56.514Z,97.20
2022-10-08T06:49:00.366Z,96.92
2022-10-08T06:52:02.037Z,97.17
2022-10-08T06:55:03.915Z,97.11
2022-10-08T06:58:06.243Z,97.52
2022-10-08T07:01:13.634Z,97.75
2022-10-08T07:04:15.275Z,97.73
2022-10-08T07:07:17.050Z,98.00
2022-10-08T07:10:18.758Z,98.23
2022-10-08T07:13:20.993Z,97.95
2022-10-08T07:16:24.461Z,97.90
2022-10-08T07:19:26.587Z,97.76
2022-10-08T07:22:28.342Z,97.33
2022-10-08T07:25:30.094Z,96.99
2022-10-08T07:28:35.047Z,96.48
2022-10-08T07:31:37.555Z,96.16
2022-10-08T07:34:39.209Z,95.73
2022-10-08T07:37:43.840Z,95.65
2022-10-08T07:40:46.983Z,95.29
2022-10-08T07:43:53.177Z,94.85
2022-10-08T07:46:54.909Z,94.59
2022-10-08T07:49:56.470Z,94.81
2022-10-08T07:52:58.067Z,94.46
2022-10-08T07:55:59.652Z,94.33
2022-10-08T07:59:02.675Z,94.01
2022-10-08T08:02:04.398Z,93.82
2022-10-08T08:05:06.521Z,94.03
2022-10-08T08:08:08.091Z,93.92
2022-10-08T08:11:12.393Z,93.89
2022-10-08T08:14:14.223Z,93.83
2022-10-08T08:17:15.840Z,94.01
2022-10-08T08:20:17.427Z,93.79
2022-10-08T08:23:19.038Z,93.97
2022-10-08T08:26:23.307Z,93.79
2022-10-08T08:29:24.877Z,93.80
2022-10-08T08:32:28.642Z,93.83
2022-10-08T08:35:30.381Z,93.65
2022-10-08T08:38:35.648Z,93.25
2022-10-08T08:41:52.685Z,92.80
2022-10-08T08:45:00.373Z,92.18
2022-10-08T08:48:12.860Z,91.68
2022-10-08T08:51:16.179Z,90.93
2022-10-08T08:54:17.894Z,90.80
2022-10-08T08:57:38.623Z,89.91
2022-10-08T09:00:44.953Z,89.64
2022-10-08T09:03:50.844Z,89.50
2022-10-08T09:06:53.700Z,89.36
2022-10-08T09:09:58.845Z,88.78
2022-10-08T09:13:02.310Z,88.32
2022-10-08T09:16:04.035Z,87.42
2022-10-08T09:19:05.647Z,86.65
2022-10-08T09:22:24.377Z,85.99
2022-10-08T09:25:32.822Z,85.17
2022-10-08T09:28:41.711Z,83.93
2022-10-08T09:31:48.000Z,82.83
2022-10-08T09:34:49.679Z,82.09
2022-10-08T10:00:28.758Z,80.86
2022-10-08T10:03:31.726Z,80.00
2022-10-08T10:06:40.348Z,80.01
2022-10-08T10:09:46.853Z,79.27
2022-10-08T10:12:54.469Z,79.63
2022-10-08T10:16:04.986Z,79.89
2022-10-08T10:19:14.405Z,79.77
2022-10-08T10:22:23.942Z,79.85
2022-10-08T10:25:42.224Z,78.56
2022-10-08T10:29:02.869Z,77.51
2022-10-08T10:32:14.621Z,77.18
2022-10-08T10:35:27.556Z,78.55
2022-10-08T10:38:31.628Z,79.31
2022-10-08T11:21:56.404Z,71.43
2022-10-08T11:26:23.211Z,72.22
2022-10-08T11:45:55.385Z,70.55
2022-10-08T13:32:42.975Z,97.08
2022-10-08T14:02:25.674Z,86.47
2022-10-08T14:10:32.553Z,89.03
2022-10-08T14:14:12.264Z,88.96
2022-10-08T14:21:35.105Z,89.00
2022-10-08T14:25:10.836Z,89.90
2022-10-08T14:31:47.193Z,88.79
2022-10-08T14:34:50.295Z,88.65
2022-10-08T18:38:37.891Z,90.33
